sensor_id;sensor_type;location;lat;lon;timestamp;pressure;altitude;pressure_sealevel;temperature;humidity
75594;BME280;64176;49.156;7.810;2022-11-20T00:00:27;98698.63;;;6.66;87.33
75594;BME280;64176;49.156;7.810;2022-11-20T00:03:10;98692.63;;;6.65;88.08
75594;BME280;64176;49.156;7.810;2022-11-20T00:06:01;98702.97;;;6.70;86.41
75594;BME280;64176;49.156;7.810;2022-11-20T00:08:47;98703.88;;;6.72;86.73
75594;BME280;64176;49.156;7.810;2022-11-20T00:11:31;98705.59;;;6.73;87.03
75594;BME280;64176;49.156;7.810;2022-11-20T00:14:16;98707.31;;;6.74;86.82
75594;BME280;64176;49.156;7.810;2022-11-20T00:17:02;98694.41;;;6.69;86.18
75594;BME280;64176;49.156;7.810;2022-11-20T00:19:49;98703.03;;;6.73;86.11
75594;BME280;64176;49.156;7.810;2022-11-20T00:22:33;98699.72;;;6.83;86.08
75594;BME280;64176;49.156;7.810;2022-11-20T00:25:19;98697.06;;;6.78;86.00
75594;BME280;64176;49.156;7.810;2022-11-20T00:28:03;98705.63;;;6.77;85.66
75594;BME280;64176;49.156;7.810;2022-11-20T00:30:47;98696.16;;;6.75;85.50
75594;BME280;64176;49.156;7.810;2022-11-20T00:33:34;98709.16;;;6.84;85.66
75594;BME280;64176;49.156;7.810;2022-11-20T00:36:26;98706.53;;;6.81;85.37
75594;BME280;64176;49.156;7.810;2022-11-20T00:39:10;98709.06;;;6.78;85.91
75594;BME280;64176;49.156;7.810;2022-11-20T00:41:54;98708.22;;;6.80;85.33
75594;BME280;64176;49.156;7.810;2022-11-20T00:44:40;98698.75;;;6.76;85.25
75594;BME280;64176;49.156;7.810;2022-11-20T00:47:29;98700.56;;;6.83;85.28
75594;BME280;64176;49.156;7.810;2022-11-20T00:50:13;98709.03;;;6.76;85.08
75594;BME280;64176;49.156;7.810;2022-11-20T00:52:59;98698.75;;;6.76;85.75
75594;BME280;64176;49.156;7.810;2022-11-20T00:56:02;98709.00;;;6.72;86.30
75594;BME280;64176;49.156;7.810;2022-11-20T00:58:49;98701.28;;;6.70;85.38
75594;BME280;64176;49.156;7.810;2022-11-20T01:01:38;98709.06;;;6.78;85.44
75594;BME280;64176;49.156;7.810;2022-11-20T01:04:22;98685.88;;;6.72;85.33
75594;BME280;64176;49.156;7.810;2022-11-20T01:07:08;98701.41;;;6.81;85.37
75594;BME280;64176;49.156;7.810;2022-11-20T01:09:55;98704.81;;;6.81;85.63
75594;BME280;64176;49.156;7.810;2022-11-20T01:12:39;98709.97;;;6.83;85.35
75594;BME280;64176;49.156;7.810;2022-11-20T01:15:23;98700.56;;;6.82;84.52
75594;BME280;64176;49.156;7.810;2022-11-20T01:18:10;98700.47;;;6.76;85.59
75594;BME280;64176;49.156;7.810;2022-11-20T01:20:54;98696.25;;;6.81;85.38
75594;BME280;64176;49.156;7.810;2022-11-20T01:23:40;98705.69;;;6.85;85.29
75594;BME280;64176;49.156;7.810;2022-11-20T01:26:29;98699.69;;;6.81;85.25
75594;BME280;64176;49.156;7.810;2022-11-20T01:29:19;98702.22;;;6.80;85.21
75594;BME280;64176;49.156;7.810;2022-11-20T01:32:05;98700.53;;;6.80;85.62
75594;BME280;64176;49.156;7.810;2022-11-20T01:34:49;98693.72;;;6.84;85.45
75594;BME280;64176;49.156;7.810;2022-11-20T01:37:36;98690.13;;;6.68;86.06
75594;BME280;64176;49.156;7.810;2022-11-20T01:40:25;98696.19;;;6.76;86.55
75594;BME280;64176;49.156;7.810;2022-11-20T01:43:18;98697.03;;;6.74;85.98
75594;BME280;64176;49.156;7.810;2022-11-20T01:49:11;98689.28;;;6.69;87.33
75594;BME280;64176;49.156;7.810;2022-11-20T01:52:05;98691.03;;;6.72;86.95
75594;BME280;64176;49.156;7.810;2022-11-20T01:54:59;98692.75;;;6.74;87.12
75594;BME280;64176;49.156;7.810;2022-11-20T01:57:46;98681.63;;;6.72;86.62
75594;BME280;64176;49.156;7.810;2022-11-20T02:00:34;98692.72;;;6.71;86.73
75594;BME280;64176;49.156;7.810;2022-11-20T02:03:21;98693.53;;;6.69;86.91
75594;BME280;64176;49.156;7.810;2022-11-20T02:06:29;98685.91;;;6.73;86.35
75594;BME280;64176;49.156;7.810;2022-11-20T02:09:23;98689.31;;;6.72;86.52
75594;BME280;64176;49.156;7.810;2022-11-20T02:12:09;98687.53;;;6.67;87.04
75594;BME280;64176;49.156;7.810;2022-11-20T02:15:14;98694.47;;;6.74;86.98
75594;BME280;64176;49.156;7.810;2022-11-20T02:17:58;98698.72;;;6.72;86.80
75594;BME280;64176;49.156;7.810;2022-11-20T02:20:45;98699.63;;;6.74;86.38
75594;BME280;64176;49.156;7.810;2022-11-20T02:24:03;98691.00;;;6.70;86.15
75594;BME280;64176;49.156;7.810;2022-11-20T02:26:51;98685.78;;;6.64;86.47
75594;BME280;64176;49.156;7.810;2022-11-20T02:32:35;98690.13;;;6.68;86.18
75594;BME280;64176;49.156;7.810;2022-11-20T02:38:05;98703.03;;;6.76;84.98
75594;BME280;64176;49.156;7.810;2022-11-20T02:40:50;98697.03;;;6.75;85.04
75594;BME280;64176;49.156;7.810;2022-11-20T02:43:34;98691.97;;;6.80;84.66
75594;BME280;64176;49.156;7.810;2022-11-20T02:46:20;98689.41;;;6.80;84.67
75594;BME280;64176;49.156;7.810;2022-11-20T02:49:09;98691.09;;;6.78;84.75
75594;BME280;64176;49.156;7.810;2022-11-20T02:51:56;98687.66;;;6.79;84.01
75594;BME280;64176;49.156;7.810;2022-11-20T02:54:42;98689.34;;;6.77;84.19
75594;BME280;64176;49.156;7.810;2022-11-20T02:57:26;98691.94;;;6.78;84.16
75594;BME280;64176;49.156;7.810;2022-11-20T03:00:11;98679.09;;;6.78;84.13
75594;BME280;64176;49.156;7.810;2022-11-20T03:02:55;98681.63;;;6.74;84.05
75594;BME280;64176;49.156;7.810;2022-11-20T03:05:42;98687.72;;;6.83;83.65
75594;BME280;64176;49.156;7.810;2022-11-20T03:08:31;98681.75;;;6.86;83.63
75594;BME280;64176;49.156;7.810;2022-11-20T03:11:18;98682.56;;;6.80;83.73
75594;BME280;64176;49.156;7.810;2022-11-20T03:14:03;98673.91;;;6.75;83.73
75594;BME280;64176;49.156;7.810;2022-11-20T03:16:50;98683.38;;;6.78;84.30
75594;BME280;64176;49.156;7.810;2022-11-20T03:19:37;98681.72;;;6.83;83.90
75594;BME280;64176;49.156;7.810;2022-11-20T03:22:21;98678.25;;;6.78;84.49
75594;BME280;64176;49.156;7.810;2022-11-20T03:25:09;98676.56;;;6.81;83.91
75594;BME280;64176;49.156;7.810;2022-11-20T03:27:54;98674.84;;;6.80;83.75
75594;BME280;64176;49.156;7.810;2022-11-20T03:30:38;98672.25;;;6.79;84.57
75594;BME280;64176;49.156;7.810;2022-11-20T03:33:27;98669.66;;;6.77;84.14
75594;BME280;64176;49.156;7.810;2022-11-20T03:36:17;98662.78;;;6.75;83.91
75594;BME280;64176;49.156;7.810;2022-11-20T03:39:01;98669.66;;;6.77;84.27
75594;BME280;64176;49.156;7.810;2022-11-20T03:41:47;98676.56;;;6.80;84.41
75594;BME280;64176;49.156;7.810;2022-11-20T03:44:31;98675.72;;;6.81;84.29
75594;BME280;64176;49.156;7.810;2022-11-20T03:47:18;98680.84;;;6.81;84.17
75594;BME280;64176;49.156;7.810;2022-11-20T03:50:04;98676.53;;;6.78;84.17
75594;BME280;64176;49.156;7.810;2022-11-20T03:52:48;98681.69;;;6.80;84.53
75594;BME280;64176;49.156;7.810;2022-11-20T03:55:32;98679.16;;;6.81;83.94
75594;BME280;64176;49.156;7.810;2022-11-20T03:58:21;98668.84;;;6.80;84.15
75594;BME280;64176;49.156;7.810;2022-11-20T04:01:14;98668.84;;;6.80;84.26
75594;BME280;64176;49.156;7.810;2022-11-20T04:04:04;98670.59;;;6.85;83.97
75594;BME280;64176;49.156;7.810;2022-11-20T04:06:48;98674.91;;;6.86;84.47
75594;BME280;64176;49.156;7.810;2022-11-20T04:09:37;98672.34;;;6.86;83.80
75594;BME280;64176;49.156;7.810;2022-11-20T04:12:21;98665.38;;;6.76;84.05
75594;BME280;64176;49.156;7.810;2022-11-20T04:15:05;98660.25;;;6.78;84.71
75594;BME280;64176;49.156;7.810;2022-11-20T04:17:52;98674.88;;;6.85;84.56
75594;BME280;64176;49.156;7.810;2022-11-20T04:20:42;98664.50;;;6.74;84.70
75594;BME280;64176;49.156;7.810;2022-11-20T04:23:26;98673.16;;;6.81;84.94
75594;BME280;64176;49.156;7.810;2022-11-20T04:26:11;98666.31;;;6.83;84.40
75594;BME280;64176;49.156;7.810;2022-11-20T04:28:57;98668.91;;;6.83;84.88
75594;BME280;64176;49.156;7.810;2022-11-20T04:31:44;98668.06;;;6.84;83.98
75594;BME280;64176;49.156;7.810;2022-11-20T04:34:30;98667.94;;;6.76;85.18
75594;BME280;64176;49.156;7.810;2022-11-20T04:37:16;98669.72;;;6.80;84.86
75594;BME280;64176;49.156;7.810;2022-11-20T04:40:00;98660.25;;;6.76;84.56
75594;BME280;64176;49.156;7.810;2022-11-20T04:42:47;98666.28;;;6.80;84.58
75594;BME280;64176;49.156;7.810;2022-11-20T04:45:31;98656.84;;;6.77;84.84
75594;BME280;64176;49.156;7.810;2022-11-20T04:48:15;98662.00;;;6.79;84.23
75594;BME280;64176;49.156;7.810;2022-11-20T04:51:03;98658.53;;;6.74;84.78
75594;BME280;64176;49.156;7.810;2022-11-20T04:53:49;98653.25;;;6.62;85.94
75594;BME280;64176;49.156;7.810;2022-11-20T04:56:34;98645.56;;;6.62;85.95
75594;BME280;64176;49.156;7.810;2022-11-20T04:59:18;98650.72;;;6.66;86.12
75594;BME280;64176;49.156;7.810;2022-11-20T05:02:02;98648.06;;;6.58;86.73
75594;BME280;64176;49.156;7.810;2022-11-20T05:04:48;98648.09;;;6.60;86.68
75594;BME280;64176;49.156;7.810;2022-11-20T05:07:32;98648.13;;;6.62;86.53
75594;BME280;64176;49.156;7.810;2022-11-20T05:10:18;98651.56;;;6.62;86.87
75594;BME280;64176;49.156;7.810;2022-11-20T05:13:08;98649.63;;;6.46;87.46
75594;BME280;64176;49.156;7.810;2022-11-20T05:15:51;98648.00;;;6.52;87.46
75594;BME280;64176;49.156;7.810;2022-11-20T05:18:41;98641.03;;;6.42;88.34
75594;BME280;64176;49.156;7.810;2022-11-20T05:21:30;98634.06;;;6.32;88.40
75594;BME280;64176;49.156;7.810;2022-11-20T05:24:16;98641.91;;;6.44;88.86
75594;BME280;64176;49.156;7.810;2022-11-20T05:27:05;98647.13;;;6.49;88.39
75594;BME280;64176;49.156;7.810;2022-11-20T05:29:52;98651.41;;;6.50;88.69
75594;BME280;64176;49.156;7.810;2022-11-20T05:32:36;98642.78;;;6.45;89.19
75594;BME280;64176;49.156;7.810;2022-11-20T05:35:22;98649.69;;;6.52;88.62
75594;BME280;64176;49.156;7.810;2022-11-20T05:38:09;98645.41;;;6.52;88.19
75594;BME280;64176;49.156;7.810;2022-11-20T05:40:56;98653.97;;;6.50;88.42
75594;BME280;64176;49.156;7.810;2022-11-20T05:43:47;98646.22;;;6.47;88.67
75594;BME280;64176;49.156;7.810;2022-11-20T05:46:32;98647.97;;;6.49;88.89
75594;BME280;64176;49.156;7.810;2022-11-20T05:49:16;98650.53;;;6.49;89.14
75594;BME280;64176;49.156;7.810;2022-11-20T05:52:00;98655.69;;;6.52;89.08
75594;BME280;64176;49.156;7.810;2022-11-20T05:54:46;98660.66;;;6.37;89.54
75594;BME280;64176;49.156;7.810;2022-11-20T05:57:30;98646.13;;;6.41;89.23
75594;BME280;64176;49.156;7.810;2022-11-20T06:00:17;98660.69;;;6.40;89.32
75594;BME280;64176;49.156;7.810;2022-11-20T06:03:04;98655.50;;;6.36;90.17
75594;BME280;64176;49.156;7.810;2022-11-20T06:05:47;98659.00;;;6.42;90.67
75594;BME280;64176;49.156;7.810;2022-11-20T06:08:36;98656.41;;;6.41;90.32
75594;BME280;64176;49.156;7.810;2022-11-20T06:11:25;98654.63;;;6.35;90.14
75594;BME280;64176;49.156;7.810;2022-11-20T06:14:15;98647.84;;;6.39;90.24
75594;BME280;64176;49.156;7.810;2022-11-20T06:17:01;98648.69;;;6.41;90.23
75594;BME280;64176;49.156;7.810;2022-11-20T06:19:45;98636.66;;;6.34;90.62
75594;BME280;64176;49.156;7.810;2022-11-20T06:22:29;98650.44;;;6.43;90.37
75594;BME280;64176;49.156;7.810;2022-11-20T06:25:15;98649.66;;;6.47;90.43
75594;BME280;64176;49.156;7.810;2022-11-20T06:27:59;98656.56;;;6.53;89.56
75594;BME280;64176;49.156;7.810;2022-11-20T06:30:49;98648.81;;;6.48;90.09
75594;BME280;64176;49.156;7.810;2022-11-20T06:33:35;98654.84;;;6.53;89.71
75594;BME280;64176;49.156;7.810;2022-11-20T06:36:21;98661.63;;;6.47;89.88
75594;BME280;64176;49.156;7.810;2022-11-20T06:39:05;98659.00;;;6.42;90.45
75594;BME280;64176;49.156;7.810;2022-11-20T06:41:52;98647.00;;;6.40;90.39
75594;BME280;64176;49.156;7.810;2022-11-20T06:44:36;98647.84;;;6.39;90.57
75594;BME280;64176;49.156;7.810;2022-11-20T06:47:20;98659.94;;;6.47;90.35
75594;BME280;64176;49.156;7.810;2022-11-20T06:50:04;98661.56;;;6.42;90.19
75594;BME280;64176;49.156;7.810;2022-11-20T06:52:51;98662.44;;;6.44;90.40
75594;BME280;64176;49.156;7.810;2022-11-20T06:55:42;98656.31;;;6.33;91.03
75594;BME280;64176;49.156;7.810;2022-11-20T06:58:28;98670.97;;;6.42;90.91
75594;BME280;64176;49.156;7.810;2022-11-20T07:01:14;98671.81;;;6.39;91.30
75594;BME280;64176;49.156;7.810;2022-11-20T07:04:01;98677.00;;;6.45;91.14
75594;BME280;64176;49.156;7.810;2022-11-20T07:06:49;98683.00;;;6.46;91.32
75594;BME280;64176;49.156;7.810;2022-11-20T07:09:33;98670.16;;;6.44;90.60
75594;BME280;64176;49.156;7.810;2022-11-20T07:12:20;98684.78;;;6.50;90.79
75594;BME280;64176;49.156;7.810;2022-11-20T07:15:07;98671.81;;;6.39;91.05
75594;BME280;64176;49.156;7.810;2022-11-20T07:17:52;98683.06;;;6.52;91.16
75594;BME280;64176;49.156;7.810;2022-11-20T07:20:36;98658.03;;;6.34;90.82
75594;BME280;64176;49.156;7.810;2022-11-20T07:23:22;98692.47;;;6.50;91.33
75594;BME280;64176;49.156;7.810;2022-11-20T07:26:10;98695.91;;;6.52;91.62
75594;BME280;64176;49.156;7.810;2022-11-20T07:28:54;98692.41;;;6.45;90.81
75594;BME280;64176;49.156;7.810;2022-11-20T07:31:41;98699.38;;;6.55;90.66
75594;BME280;64176;49.156;7.810;2022-11-20T07:34:27;98695.06;;;6.51;91.32
75594;BME280;64176;49.156;7.810;2022-11-20T07:37:15;98699.44;;;6.60;90.74
75594;BME280;64176;49.156;7.810;2022-11-20T07:40:01;98689.88;;;6.48;90.90
75594;BME280;64176;49.156;7.810;2022-11-20T07:42:53;98691.66;;;6.55;90.91
75594;BME280;64176;49.156;7.810;2022-11-20T07:45:42;98679.63;;;6.50;90.12
75594;BME280;64176;49.156;7.810;2022-11-20T07:48:31;98703.72;;;6.61;90.54
75594;BME280;64176;49.156;7.810;2022-11-20T07:51:16;98701.19;;;6.63;90.75
75594;BME280;64176;49.156;7.810;2022-11-20T07:54:00;98703.75;;;6.64;90.95
75594;BME280;64176;49.156;7.810;2022-11-20T07:56:44;98707.25;;;6.69;90.74
75594;BME280;64176;49.156;7.810;2022-11-20T07:59:30;98702.88;;;6.64;90.84
75594;BME280;64176;49.156;7.810;2022-11-20T08:02:17;98711.56;;;6.75;90.97
75594;BME280;64176;49.156;7.810;2022-11-20T08:05:03;98714.19;;;6.78;90.88
75594;BME280;64176;49.156;7.810;2022-11-20T08:07:47;98718.50;;;6.79;90.68
75594;BME280;64176;49.156;7.810;2022-11-20T08:10:34;98724.31;;;6.66;91.19
75594;BME280;64176;49.156;7.810;2022-11-20T08:13:18;98716.59;;;6.64;91.83
75594;BME280;64176;49.156;7.810;2022-11-20T08:16:21;98728.66;;;6.70;92.15
75594;BME280;64176;49.156;7.810;2022-11-20T08:19:05;98729.53;;;6.70;91.68
75594;BME280;64176;49.156;7.810;2022-11-20T08:21:50;98686.34;;;6.39;91.08
75594;BME280;64176;49.156;7.810;2022-11-20T08:24:37;98734.69;;;6.73;92.19
75594;BME280;64176;49.156;7.810;2022-11-20T08:27:21;98736.19;;;6.57;91.87
75594;BME280;64176;49.156;7.810;2022-11-20T08:30:08;98745.75;;;6.68;91.49
75594;BME280;64176;49.156;7.810;2022-11-20T08:32:53;98753.44;;;6.68;90.70
75594;BME280;64176;49.156;7.810;2022-11-20T08:35:38;98756.09;;;6.74;90.96
75594;BME280;64176;49.156;7.810;2022-11-20T08:38:21;98752.66;;;6.75;90.86
75594;BME280;64176;49.156;7.810;2022-11-20T08:41:08;98752.66;;;6.75;90.67
75594;BME280;64176;49.156;7.810;2022-11-20T08:44:10;98754.38;;;6.73;90.54
75594;BME280;64176;49.156;7.810;2022-11-20T08:46:53;98758.59;;;6.69;90.23
75594;BME280;64176;49.156;7.810;2022-11-20T08:49:41;98751.75;;;6.68;90.82
75594;BME280;64176;49.156;7.810;2022-11-20T08:52:25;98752.69;;;6.73;90.83
75594;BME280;64176;49.156;7.810;2022-11-20T08:55:09;98755.22;;;6.75;90.99
75594;BME280;64176;49.156;7.810;2022-11-20T08:57:55;98752.59;;;6.69;90.53
75594;BME280;64176;49.156;7.810;2022-11-20T09:00:39;98766.38;;;6.74;90.61
75594;BME280;64176;49.156;7.810;2022-11-20T09:03:26;98759.38;;;6.62;90.93
75594;BME280;64176;49.156;7.810;2022-11-20T09:06:11;98753.28;;;6.55;91.90
75594;BME280;64176;49.156;7.810;2022-11-20T09:08:55;98766.22;;;6.65;91.03
75594;BME280;64176;49.156;7.810;2022-11-20T09:11:43;98770.53;;;6.66;90.55
75594;BME280;64176;49.156;7.810;2022-11-20T09:14:30;98771.38;;;6.65;91.25
75594;BME280;64176;49.156;7.810;2022-11-20T09:17:14;98763.63;;;6.63;91.20
75594;BME280;64176;49.156;7.810;2022-11-20T09:19:58;98771.41;;;6.68;91.32
75594;BME280;64176;49.156;7.810;2022-11-20T09:22:45;98775.78;;;6.73;90.99
75594;BME280;64176;49.156;7.810;2022-11-20T09:25:29;98770.66;;;6.76;90.24
75594;BME280;64176;49.156;7.810;2022-11-20T09:28:12;98780.06;;;6.76;90.17
75594;BME280;64176;49.156;7.810;2022-11-20T09:30:57;98789.50;;;6.77;89.67
75594;BME280;64176;49.156;7.810;2022-11-20T09:33:41;98786.88;;;6.71;89.86
75594;BME280;64176;49.156;7.810;2022-11-20T09:36:26;98786.03;;;6.72;89.67
75594;BME280;64176;49.156;7.810;2022-11-20T09:39:10;98780.00;;;6.70;89.39
75594;BME280;64176;49.156;7.810;2022-11-20T09:42:32;98791.31;;;6.85;89.71
75594;BME280;64176;49.156;7.810;2022-11-20T09:54:27;98789.88;;;7.07;89.49
75594;BME280;64176;49.156;7.810;2022-11-20T09:57:19;98788.22;;;7.12;87.35
75594;BME280;64176;49.156;7.810;2022-11-20T10:00:11;98780.66;;;7.24;88.02
75594;BME280;64176;49.156;7.810;2022-11-20T10:03:20;98783.31;;;7.34;87.74
75594;BME280;64176;49.156;7.810;2022-11-20T10:06:12;98771.31;;;7.32;87.06
75594;BME280;64176;49.156;7.810;2022-11-20T10:15:42;98777.25;;;7.25;86.38
75594;BME280;64176;49.156;7.810;2022-11-20T10:18:58;98779.94;;;7.36;85.99
75594;BME280;64176;49.156;7.810;2022-11-20T10:25:15;98779.19;;;7.46;85.44
75594;BME280;64176;49.156;7.810;2022-11-20T10:34:29;98775.78;;;7.49;85.87
75594;BME280;64176;49.156;7.810;2022-11-20T10:37:20;98778.34;;;7.49;85.32
75594;BME280;64176;49.156;7.810;2022-11-20T10:40:18;98769.75;;;7.45;84.82
75594;BME280;64176;49.156;7.810;2022-11-20T10:46:17;98755.34;;;7.61;84.33
75594;BME280;64176;49.156;7.810;2022-11-20T10:49:04;98745.94;;;7.66;83.79
75594;BME280;64176;49.156;7.810;2022-11-20T10:58:14;98729.72;;;7.73;82.94
75594;BME280;64176;49.156;7.810;2022-11-20T11:01:05;98737.56;;;7.90;82.29
75594;BME280;64176;49.156;7.810;2022-11-20T11:03:53;98741.97;;;8.08;81.32
75594;BME280;64176;49.156;7.810;2022-11-20T11:06:43;98737.66;;;8.03;81.56
75594;BME280;64176;49.156;7.810;2022-11-20T11:09:35;98730.03;;;8.19;80.30
75594;BME280;64176;49.156;7.810;2022-11-20T11:12:28;98733.47;;;8.21;79.68
75594;BME280;64176;49.156;7.810;2022-11-20T11:15:36;98724.91;;;8.22;79.97
75594;BME280;64176;49.156;7.810;2022-11-20T11:18:25;98719.00;;;8.32;78.55
75594;BME280;64176;49.156;7.810;2022-11-20T11:21:10;98712.13;;;8.32;78.71
75594;BME280;64176;49.156;7.810;2022-11-20T11:24:03;98706.88;;;8.17;77.98
75594;BME280;64176;49.156;7.810;2022-11-20T11:27:02;98705.16;;;8.15;78.09
75594;BME280;64176;49.156;7.810;2022-11-20T11:30:03;98703.44;;;8.15;78.19
75594;BME280;64176;49.156;7.810;2022-11-20T11:33:05;98700.84;;;8.15;78.52
75594;BME280;64176;49.156;7.810;2022-11-20T11:35:59;98700.72;;;7.92;78.58
75594;BME280;64176;49.156;7.810;2022-11-20T11:38:51;98668.06;;;7.85;77.74
75594;BME280;64176;49.156;7.810;2022-11-20T11:41:36;98679.34;;;8.06;78.25
75594;BME280;64176;49.156;7.810;2022-11-20T11:44:33;98680.38;;;8.32;75.88
75594;BME280;64176;49.156;7.810;2022-11-20T11:50:28;98685.63;;;8.47;75.57
75594;BME280;64176;49.156;7.810;2022-11-20T11:53:19;98678.66;;;8.32;74.87
75594;BME280;64176;49.156;7.810;2022-11-20T11:56:09;98674.44;;;8.47;74.82
75594;BME280;64176;49.156;7.810;2022-11-20T11:59:00;98667.63;;;8.58;73.68
75594;BME280;64176;49.156;7.810;2022-11-20T12:01:57;98670.25;;;8.67;73.14
75594;BME280;64176;49.156;7.810;2022-11-20T12:04:50;98661.69;;;8.72;73.01
75594;BME280;64176;49.156;7.810;2022-11-20T12:07:41;98672.84;;;8.84;72.41
75594;BME280;64176;49.156;7.810;2022-11-20T12:16:23;98638.47;;;8.69;70.60
75594;BME280;64176;49.156;7.810;2022-11-20T12:19:12;98641.03;;;8.65;71.18
75594;BME280;64176;49.156;7.810;2022-11-20T12:22:29;98662.50;;;8.73;70.99
75594;BME280;64176;49.156;7.810;2022-11-20T12:25:27;98659.00;;;8.48;72.15
75594;BME280;64176;49.156;7.810;2022-11-20T12:31:24;98663.31;;;8.52;71.12
75594;BME280;64176;49.156;7.810;2022-11-20T12:40:27;98650.53;;;8.81;68.00
75594;BME280;64176;49.156;7.810;2022-11-20T12:43:22;98654.81;;;8.85;65.41
75594;BME280;64176;49.156;7.810;2022-11-20T12:46:46;98640.25;;;8.95;62.83
75594;BME280;64176;49.156;7.810;2022-11-20T12:52:54;98634.97;;;8.48;62.63
75594;BME280;64176;49.156;7.810;2022-11-20T13:01:55;98643.44;;;8.25;63.41
75594;BME280;64176;49.156;7.810;2022-11-20T13:05:12;98649.44;;;8.29;64.04
75594;BME280;64176;49.156;7.810;2022-11-20T13:08:00;98646.00;;;8.27;64.68
75594;BME280;64176;49.156;7.810;2022-11-20T13:19:49;98631.53;;;8.46;64.46
75594;BME280;64176;49.156;7.810;2022-11-20T13:22:57;98616.97;;;8.55;64.41
75594;BME280;64176;49.156;7.810;2022-11-20T13:25:44;98612.66;;;8.53;64.66
75594;BME280;64176;49.156;7.810;2022-11-20T13:28:30;98605.81;;;8.50;65.84
75594;BME280;64176;49.156;7.810;2022-11-20T13:31:29;98607.53;;;8.56;66.90
75594;BME280;64176;49.156;7.810;2022-11-20T13:34:25;98597.22;;;8.57;65.28
75594;BME280;64176;49.156;7.810;2022-11-20T13:37:31;98603.22;;;8.55;64.93
75594;BME280;64176;49.156;7.810;2022-11-20T13:40:22;98591.19;;;8.48;64.44
75594;BME280;64176;49.156;7.810;2022-11-20T13:46:19;98591.19;;;8.46;64.38
75594;BME280;64176;49.156;7.810;2022-11-20T13:49:39;98581.72;;;8.36;64.34
75594;BME280;64176;49.156;7.810;2022-11-20T13:52:57;98576.50;;;8.27;62.77
75594;BME280;64176;49.156;7.810;2022-11-20T13:55:50;98579.06;;;8.25;63.48
75594;BME280;64176;49.156;7.810;2022-11-20T13:59:06;98574.81;;;8.27;64.72
75594;BME280;64176;49.156;7.810;2022-11-20T14:01:56;98578.22;;;8.23;64.48
75594;BME280;64176;49.156;7.810;2022-11-20T14:04:45;98569.59;;;8.20;64.37
75594;BME280;64176;49.156;7.810;2022-11-20T14:07:42;98568.75;;;8.15;64.72
75594;BME280;64176;49.156;7.810;2022-11-20T14:10:30;98557.56;;;8.13;64.24
75594;BME280;64176;49.156;7.810;2022-11-20T14:13:22;98560.13;;;8.11;63.31
75594;BME280;64176;49.156;7.810;2022-11-20T14:16:06;98566.16;;;8.13;64.36
75594;BME280;64176;49.156;7.810;2022-11-20T14:18:52;98555.00;;;8.13;64.10
75594;BME280;64176;49.156;7.810;2022-11-20T14:21:42;98555.00;;;8.13;64.78
75594;BME280;64176;49.156;7.810;2022-11-20T14:24:26;98557.56;;;8.11;63.99
75594;BME280;64176;49.156;7.810;2022-11-20T14:27:19;98558.41;;;8.10;64.70
75594;BME280;64176;49.156;7.810;2022-11-20T14:30:05;98548.09;;;8.02;64.93
75594;BME280;64176;49.156;7.810;2022-11-20T14:33:00;98542.94;;;7.98;64.80
75594;BME280;64176;49.156;7.810;2022-11-20T14:35:52;98554.09;;;8.00;64.97
75594;BME280;64176;49.156;7.810;2022-11-20T14:38:37;98545.50;;;7.98;64.60
75594;BME280;64176;49.156;7.810;2022-11-20T14:41:24;98530.03;;;7.89;64.99
75594;BME280;64176;49.156;7.810;2022-11-20T14:44:13;98533.47;;;7.89;65.04
75594;BME280;64176;49.156;7.810;2022-11-20T14:46:58;98526.56;;;7.81;65.85
75594;BME280;64176;49.156;7.810;2022-11-20T14:49:49;98525.69;;;7.77;65.74
75594;BME280;64176;49.156;7.810;2022-11-20T14:52:39;98524.84;;;7.78;65.89
75594;BME280;64176;49.156;7.810;2022-11-20T14:55:34;98524.84;;;7.78;65.45
75594;BME280;64176;49.156;7.810;2022-11-20T14:58:24;98516.22;;;7.70;65.59
75594;BME280;64176;49.156;7.810;2022-11-20T15:01:14;98530.75;;;7.65;66.42
75594;BME280;64176;49.156;7.810;2022-11-20T15:04:11;98536.75;;;7.62;66.39
75594;BME280;64176;49.156;7.810;2022-11-20T15:07:01;98534.19;;;7.65;65.99
75594;BME280;64176;49.156;7.810;2022-11-20T15:09:45;98531.59;;;7.62;66.13
75594;BME280;64176;49.156;7.810;2022-11-20T15:12:33;98537.63;;;7.61;66.53
75594;BME280;64176;49.156;7.810;2022-11-20T15:15:45;98535.03;;;7.63;66.28
75594;BME280;64176;49.156;7.810;2022-11-20T15:18:38;98541.03;;;7.59;66.98
75594;BME280;64176;49.156;7.810;2022-11-20T15:21:22;98511.78;;;7.42;67.47
75594;BME280;64176;49.156;7.810;2022-11-20T15:24:08;98525.53;;;7.51;67.56
75594;BME280;64176;49.156;7.810;2022-11-20T15:26:52;98526.44;;;7.55;67.26
75594;BME280;64176;49.156;7.810;2022-11-20T15:29:36;98519.56;;;7.54;67.40
75594;BME280;64176;49.156;7.810;2022-11-20T15:32:23;98492.06;;;7.42;67.33
75594;BME280;64176;49.156;7.810;2022-11-20T15:35:07;98509.25;;;7.48;67.71
75594;BME280;64176;49.156;7.810;2022-11-20T15:37:51;98510.97;;;7.46;68.34
75594;BME280;64176;49.156;7.810;2022-11-20T15:40:38;98510.94;;;7.44;67.81
75594;BME280;64176;49.156;7.810;2022-11-20T15:43:25;98511.78;;;7.39;68.02
75594;BME280;64176;49.156;7.810;2022-11-20T15:46:15;98506.63;;;7.42;68.16
75594;BME280;64176;49.156;7.810;2022-11-20T15:49:05;98505.78;;;7.38;68.14
75594;BME280;64176;49.156;7.810;2022-11-20T15:51:50;98495.41;;;7.29;68.58
75594;BME280;64176;49.156;7.810;2022-11-20T15:54:37;98504.03;;;7.34;69.11
75594;BME280;64176;49.156;7.810;2022-11-20T15:57:23;98492.00;;;7.30;69.31
75594;BME280;64176;49.156;7.810;2022-11-20T16:00:11;98484.31;;;7.35;69.38
75594;BME280;64176;49.156;7.810;2022-11-20T16:02:58;98485.16;;;7.27;69.46
75594;BME280;64176;49.156;7.810;2022-11-20T16:05:44;98479.16;;;7.27;69.57
75594;BME280;64176;49.156;7.810;2022-11-20T16:08:31;98482.53;;;7.23;70.53
75594;BME280;64176;49.156;7.810;2022-11-20T16:11:17;98481.72;;;7.30;69.98
75594;BME280;64176;49.156;7.810;2022-11-20T16:14:03;98493.66;;;7.20;70.36
75594;BME280;64176;49.156;7.810;2022-11-20T16:17:06;98479.97;;;7.23;70.79
75594;BME280;64176;49.156;7.810;2022-11-20T16:19:50;98479.97;;;7.21;70.94
75594;BME280;64176;49.156;7.810;2022-11-20T16:22:34;98473.97;;;7.21;71.25
75594;BME280;64176;49.156;7.810;2022-11-20T16:25:18;98461.94;;;7.18;71.53
75594;BME280;64176;49.156;7.810;2022-11-20T16:28:04;98461.13;;;7.18;71.86